Royal Melbourne — WDC2865 — position and weather

sailwx.info

Track history (hours):
 
Tides and Currents Weather Stations Pressure Air Temp Water Temp Dewpoint Dewpoint Depression Visibility Wind Speed Wind Dir Waves Ship Positions

Royal Melbourne

Owner: Harley Marine Services, Inc, Seattle, WA. More information available from US FCC via Universal Licensing System and Coast Guard Vessel Documentation Center.

Last reported at 2015-Jul-02 00:32 UTC. Time now 2015-Jul-02 00:52 UTC.
Position N 37°42' W 122°19'.

Length 30 m; draft 2 m.

Type: Tug. MMSI: 366998830.

Date/timePositionNaut miles runAvg speedWind from/ knotsBaromVisibWave heightAir tempDewpointWater temp
2015-Jul-02 00:32N 37°42' W 122°19'0 0.0
2015-Jul-01 23:31N 37°42' W 122°19'0 0.1
2015-Jul-01 22:22N 37°42' W 122°19'2 2.1
2015-Jul-01 21:33N 37°43' W 122°20'6 5.9
2015-Jul-01 20:33N 37°48' W 122°24'0 0.0
2015-Jul-01 19:33N 37°48' W 122°24'0 0.0
2015-Jul-01 18:33N 37°48' W 122°24'0 0.0
2015-Jul-01 17:30N 37°48' W 122°24'0 0.0
2015-Jul-01 16:33N 37°48' W 122°24'0 0.0
2015-Jul-01 15:30N 37°48' W 122°24'0 0.0
2015-Jul-01 14:33N 37°48' W 122°24'0 0.2
2015-Jul-01 13:33N 37°48' W 122°24'3 3.4
2015-Jul-01 12:33N 37°48' W 122°20'2 2.0
2015-Jul-01 11:33N 37°48' W 122°17'0 0.0
2015-Jul-01 10:31N 37°48' W 122°17'0 0.0
2015-Jul-01 09:31N 37°48' W 122°17'0 0.0
2015-Jul-01 08:31N 37°48' W 122°17'0 0.0
2015-Jul-01 07:31N 37°48' W 122°17'0 0.0
2015-Jul-01 06:31N 37°48' W 122°17'0 0.0
2015-Jul-01 05:31N 37°48' W 122°17'0 0.0
2015-Jul-01 04:31N 37°48' W 122°17'0 0.0
2015-Jul-01 03:31N 37°48' W 122°17'0 0.0
2015-Jul-01 02:31N 37°48' W 122°17'0 0.0
2015-Jul-01 01:31N 37°48' W 122°17'0 0.0
2015-Jul-01 00:31N 37°48' W 122°17'0 0.0
2015-Jun-30 23:31N 37°48' W 122°17'0 0.0
2015-Jun-30 22:34N 37°48' W 122°17'0 0.0
2015-Jun-30 21:33N 37°48' W 122°17'0 0.0
2015-Jun-30 20:33N 37°48' W 122°17'0 0.0
2015-Jun-30 19:33N 37°48' W 122°17'3 2.9
2015-Jun-30 18:33N 37°47' W 122°21'5 4.7
2015-Jun-30 17:31N 37°42' W 122°20'0 0.0
2015-Jun-30 16:31N 37°42' W 122°20'0 0.0
2015-Jun-30 15:25N 37°42' W 122°20'0 0.0
2015-Jun-30 14:31N 37°42' W 122°20'0 0.1
2015-Jun-30 13:31N 37°42' W 122°20'4 4.0
2015-Jun-30 12:33N 37°46' W 122°21'0 0.0
2015-Jun-30 11:31N 37°46' W 122°21'0 0.0
2015-Jun-30 10:34N 37°46' W 122°21'1 1.0
2015-Jun-30 09:33N 37°45' W 122°21'2 2.4
2015-Jun-30 08:34N 37°43' W 122°19'1 0.8
2015-Jun-30 07:33N 37°42' W 122°19'0 0.2
2015-Jun-30 06:33N 37°42' W 122°19'0 0.1
2015-Jun-30 05:33N 37°42' W 122°19'0 0.3
2015-Jun-30 04:33N 37°42' W 122°19'8 8.3
2015-Jun-30 03:33N 37°50' W 122°23'5 4.6
2015-Jun-30 02:33N 37°54' W 122°23'1 1.0
2015-Jun-30 01:33N 37°55' W 122°22'0 0.0
2015-Jun-30 00:33N 37°55' W 122°22'0 0.0
2015-Jun-29 23:33N 37°55' W 122°22'0 0.0
2015-Jun-29 22:27N 37°55' W 122°22'0 0.0
2015-Jun-29 21:33N 37°55' W 122°22'0 0.0
2015-Jun-29 20:33N 37°55' W 122°22'0 0.0
2015-Jun-29 19:33N 37°55' W 122°22'0 0.0
2015-Jun-29 18:33N 37°55' W 122°22'3 2.6
2015-Jun-29 17:33N 37°54' W 122°25'6 6.2
2015-Jun-29 16:33N 37°49' W 122°20'1 1.1
2015-Jun-29 15:31N 37°49' W 122°19'0 0.0
2015-Jun-29 14:31N 37°49' W 122°19'0 0.0
2015-Jun-29 13:31N 37°49' W 122°19'1 1.6
2015-Jun-29 12:33N 37°48' W 122°20'3 2.6
2015-Jun-29 11:31N 37°48' W 122°17'0 0.0
2015-Jun-29 10:31N 37°48' W 122°17'0 0.0
2015-Jun-29 09:31N 37°48' W 122°17'0 0.0
2015-Jun-29 08:31N 37°48' W 122°17'0 0.0
2015-Jun-29 07:31N 37°48' W 122°17'0 0.0
2015-Jun-29 06:31N 37°48' W 122°17'0 0.0
2015-Jun-29 05:31N 37°48' W 122°17'0 0.0
2015-Jun-29 04:31N 37°48' W 122°17'0 0.0
2015-Jun-29 03:31N 37°48' W 122°17'0 0.0
2015-Jun-29 02:31N 37°48' W 122°17'0 0.0
2015-Jun-29 01:31N 37°48' W 122°17'0 0.0
2015-Jun-29 00:31N 37°48' W 122°17'0 0.0
2015-Jun-28 23:31N 37°48' W 122°17'0 0.0
2015-Jun-28 22:28N 37°48' W 122°17'0 0.0
2015-Jun-28 21:31N 37°48' W 122°17'0 0.0
2015-Jun-28 20:31N 37°48' W 122°17'0 0.0
2015-Jun-28 19:31N 37°48' W 122°17'0 0.0
2015-Jun-28 18:31N 37°48' W 122°17'0 0.0
2015-Jun-28 17:29N 37°48' W 122°17'3 3.3
2015-Jun-28 16:33N 37°47' W 122°21'2 1.7
2015-Jun-28 15:31N 37°45' W 122°21'0 0.0
2015-Jun-28 14:31N 37°45' W 122°21'0 0.1
2015-Jun-28 13:33N 37°45' W 122°21'1 0.7
2015-Jun-28 12:33N 37°44' W 122°20'0 0.2
2015-Jun-28 11:33N 37°44' W 122°20'0 0.0
2015-Jun-28 10:33N 37°44' W 122°20'0 0.0
2015-Jun-28 09:33N 37°44' W 122°20'1 1.3
2015-Jun-28 08:33N 37°46' W 122°20'0 0.0
2015-Jun-28 07:31N 37°46' W 122°20'0 0.0
2015-Jun-28 06:31N 37°46' W 122°20'0 0.1
2015-Jun-28 05:34N 37°46' W 122°20'0 0.1
2015-Jun-28 04:33N 37°46' W 122°20'4 3.8
2015-Jun-28 03:34N 37°49' W 122°23'6 5.9
2015-Jun-28 02:34N 37°54' W 122°24'2 1.9
2015-Jun-28 01:27N 37°55' W 122°22'0 0.0
2015-Jun-28 00:33N 37°55' W 122°22'0 0.0
2015-Jun-27 23:33N 37°55' W 122°22'0 0.0
2015-Jun-27 22:33N 37°55' W 122°22'4 3.8
2015-Jun-27 21:33N 37°52' W 122°24'8 7.9
2015-Jun-27 20:33N 37°44' W 122°21'1 1.4
2015-Jun-27 19:33N 37°43' W 122°20'0 0.1
2015-Jun-27 18:33N 37°43' W 122°20'0 0.2
2015-Jun-27 17:30N 37°43' W 122°20'0 0.0
2015-Jun-27 16:30N 37°43' W 122°20'3 2.9
2015-Jun-27 15:33N 37°45' W 122°21'7 7.3
2015-Jun-27 14:33N 37°52' W 122°24'3 3.3
2015-Jun-27 13:33N 37°55' W 122°22'0 0.0
2015-Jun-27 12:33N 37°55' W 122°22'0 0.0
2015-Jun-27 11:33N 37°55' W 122°22'0 0.0
2015-Jun-27 10:33N 37°55' W 122°22'0 0.0
2015-Jun-27 09:30N 37°55' W 122°22'0 0.0
2015-Jun-27 08:33N 37°55' W 122°22'0 0.0
2015-Jun-27 07:33N 37°55' W 122°22'0 0.0
2015-Jun-27 06:33N 37°55' W 122°22'0 0.0
2015-Jun-27 05:33N 37°55' W 122°22'0 0.0
2015-Jun-27 04:32N 37°55' W 122°22'0 0.0
2015-Jun-27 03:32N 37°55' W 122°22'0 0.0
2015-Jun-27 02:32N 37°55' W 122°22'0 0.0
2015-Jun-27 01:32N 37°55' W 122°22'0 0.0
2015-Jun-27 00:32N 37°55' W 122°22'0 0.0
2015-Jun-26 23:32N 37°55' W 122°22'0 0.0
2015-Jun-26 22:32N 37°55' W 122°22'0 0.0
2015-Jun-26 21:26N 37°55' W 122°22'0 0.0
2015-Jun-26 20:32N 37°55' W 122°22'0 0.0
2015-Jun-26 19:32N 37°55' W 122°22'0 0.0
2015-Jun-26 18:29N 37°55' W 122°22'0 0.0
2015-Jun-26 17:29N 37°55' W 122°22'0 0.0
2015-Jun-26 16:32N 37°55' W 122°22'3 2.7
2015-Jun-26 15:34N 37°54' W 122°25'8 8.4
2015-Jun-26 14:34N 37°46' W 122°21'0 0.2
2015-Jun-26 13:30N 37°45' W 122°21'0 0.0
2015-Jun-26 12:33N 37°45' W 122°21'0 0.0
2015-Jun-26 11:30N 37°45' W 122°21'1 0.9
2015-Jun-26 10:33N 37°46' W 122°21'0 0.0
2015-Jun-26 09:30N 37°46' W 122°21'0 0.0
2015-Jun-26 08:33N 37°46' W 122°21'0 0.0
2015-Jun-26 07:33N 37°46' W 122°21'1 0.7
2015-Jun-26 06:33N 37°46' W 122°21'0 0.0
2015-Jun-26 05:33N 37°46' W 122°21'0 0.0
2015-Jun-26 04:33N 37°46' W 122°21'0 0.2
2015-Jun-26 03:33N 37°45' W 122°21'0 0.0
2015-Jun-26 02:33N 37°45' W 122°21'0 0.1
2015-Jun-26 01:33N 37°45' W 122°21'0 0.0
2015-Jun-26 00:33N 37°45' W 122°21'0 0.0
2015-Jun-25 23:33N 37°45' W 122°21'0 0.1
2015-Jun-25 22:33N 37°45' W 122°21'0 0.1
2015-Jun-25 21:30N 37°45' W 122°21'0 0.2
2015-Jun-25 20:30N 37°46' W 122°21'0 0.0
2015-Jun-25 19:30N 37°46' W 122°21'0 0.0
2015-Jun-25 18:24N 37°46' W 122°21'0 0.0
2015-Jun-25 17:18N 37°46' W 122°21'0 0.0
2015-Jun-25 16:30N 37°46' W 122°21'0 0.2
2015-Jun-25 15:24N 37°45' W 122°21'0 0.3
2015-Jun-25 14:33N 37°45' W 122°21'4 3.6
2015-Jun-25 13:33N 37°48' W 122°17'0 0.0
2015-Jun-25 12:29N 37°48' W 122°17'0 0.0
2015-Jun-25 11:32N 37°48' W 122°17'0 0.0
2015-Jun-25 10:32N 37°48' W 122°17'0 0.0
2015-Jun-25 09:29N 37°48' W 122°17'0 0.0
2015-Jun-25 08:32N 37°48' W 122°17'0 0.0
2015-Jun-25 07:32N 37°48' W 122°17'0 0.0
2015-Jun-25 06:32N 37°48' W 122°17'0 0.0
2015-Jun-25 05:32N 37°48' W 122°17'0 0.0
2015-Jun-25 04:32N 37°48' W 122°17'0 0.0
2015-Jun-25 03:32N 37°48' W 122°17'0 0.0
2015-Jun-25 02:32N 37°48' W 122°17'0 0.0
2015-Jun-25 01:32N 37°48' W 122°17'0 0.0
2015-Jun-25 00:29N 37°48' W 122°17'0 0.0
2015-Jun-24 23:32N 37°48' W 122°17'0 0.0
2015-Jun-24 22:29N 37°48' W 122°17'0 0.0
2015-Jun-24 21:32N 37°48' W 122°17'0 0.0
2015-Jun-24 20:29N 37°48' W 122°17'0 0.0
2015-Jun-24 19:32N 37°48' W 122°17'0 0.0
2015-Jun-24 18:32N 37°48' W 122°17'0 0.0
2015-Jun-24 17:29N 37°48' W 122°17'0 0.0
2015-Jun-24 16:32N 37°48' W 122°17'0 0.0
2015-Jun-24 15:29N 37°48' W 122°17'0 0.0
2015-Jun-24 14:32N 37°48' W 122°17'0 0.0
2015-Jun-24 13:29N 37°48' W 122°17'0 0.0
2015-Jun-24 12:23N 37°48' W 122°17'0 0.0
2015-Jun-24 11:32N 37°48' W 122°17'0 0.0
2015-Jun-24 10:32N 37°48' W 122°17'0 0.0
2015-Jun-24 09:32N 37°48' W 122°17'0 0.0
2015-Jun-24 08:29N 37°48' W 122°17'0 0.0
2015-Jun-24 07:29N 37°48' W 122°17'0 0.0
2015-Jun-24 06:32N 37°48' W 122°17'0 0.0
2015-Jun-24 05:28N 37°48' W 122°17'0 0.0
2015-Jun-24 04:28N 37°48' W 122°17'0 0.1
2015-Jun-24 03:31N 37°48' W 122°17'0 0.0
2015-Jun-24 02:28N 37°48' W 122°17'0 0.0
2015-Jun-24 01:33N 37°48' W 122°17'3 3.2
2015-Jun-24 00:33N 37°46' W 122°21'1 0.9
2015-Jun-23 23:34N 37°45' W 122°21'0 0.0
2015-Jun-23 22:33N 37°45' W 122°21'0 0.0
2015-Jun-23 21:33N 37°46' W 122°21'0 0.0
2015-Jun-23 20:34N 37°46' W 122°21'3 2.7
2015-Jun-23 19:33N 37°48' W 122°18'1 2.5
2015-Jun-23 19:06N 37°48' W 122°17'0 0.0
2015-Jun-22 19:32N 37°48' W 122°17'0 0.0
2015-Jun-22 18:32N 37°48' W 122°17'0 0.0
2015-Jun-22 17:32N 37°48' W 122°17'0 0.0
2015-Jun-22 16:32N 37°48' W 122°17'0 0.0
2015-Jun-22 15:32N 37°48' W 122°17'0 0.0
2015-Jun-22 14:33N 37°48' W 122°17'4 4.0
2015-Jun-22 13:33N 37°49' W 122°22'6 5.7
2015-Jun-22 12:33N 37°54' W 122°25'2 1.9
2015-Jun-22 11:18N 37°55' W 122°22'0 0.0
2015-Jun-22 10:18N 37°55' W 122°22'0 0.0
2015-Jun-22 09:30N 37°55' W 122°22'0 0.0
2015-Jun-22 08:30N 37°55' W 122°22'0 0.0
2015-Jun-22 07:30N 37°55' W 122°22'0 0.0
2015-Jun-22 06:30N 37°55' W 122°22'0 0.0
2015-Jun-22 05:30N 37°55' W 122°22'0 0.0
2015-Jun-22 04:12N 37°55' W 122°22'0 0.0
2015-Jun-22 03:24N 37°55' W 122°22'0 0.0
2015-Jun-22 02:30N 37°55' W 122°22'0 0.0
2015-Jun-22 01:30N 37°55' W 122°22'  
Track history (hours):
 
Tides and Currents Weather Stations Pressure Air Temp Water Temp Dewpoint Dewpoint Depression Visibility Wind Speed Wind Dir Waves Ship Positions

Royal Melbourne

Owner: Harley Marine Services, Inc, Seattle, WA. More information available from US FCC via Universal Licensing System and Coast Guard Vessel Documentation Center.

Last reported at 2015-Jul-02 00:32 UTC. Time now 2015-Jul-02 00:52 UTC.
Position N 37°42' W 122°19'.

Length 30 m; draft 2 m.

Type: Tug. MMSI: 366998830.

Date/timePositionNaut miles runAvg speedWind from/ knotsBaromVisibWave heightAir tempDewpointWater temp
2015-Jul-02 00:32N 37°42' W 122°19'0 0.0
2015-Jul-01 23:31N 37°42' W 122°19'0 0.1
2015-Jul-01 22:22N 37°42' W 122°19'2 2.1
2015-Jul-01 21:33N 37°43' W 122°20'6 5.9
2015-Jul-01 20:33N 37°48' W 122°24'0 0.0
2015-Jul-01 19:33N 37°48' W 122°24'0 0.0
2015-Jul-01 18:33N 37°48' W 122°24'0 0.0
2015-Jul-01 17:30N 37°48' W 122°24'0 0.0
2015-Jul-01 16:33N 37°48' W 122°24'0 0.0
2015-Jul-01 15:30N 37°48' W 122°24'0 0.0
2015-Jul-01 14:33N 37°48' W 122°24'0 0.2
2015-Jul-01 13:33N 37°48' W 122°24'3 3.4
2015-Jul-01 12:33N 37°48' W 122°20'2 2.0
2015-Jul-01 11:33N 37°48' W 122°17'0 0.0
2015-Jul-01 10:31N 37°48' W 122°17'0 0.0
2015-Jul-01 09:31N 37°48' W 122°17'0 0.0
2015-Jul-01 08:31N 37°48' W 122°17'0 0.0
2015-Jul-01 07:31N 37°48' W 122°17'0 0.0
2015-Jul-01 06:31N 37°48' W 122°17'0 0.0
2015-Jul-01 05:31N 37°48' W 122°17'0 0.0
2015-Jul-01 04:31N 37°48' W 122°17'0 0.0
2015-Jul-01 03:31N 37°48' W 122°17'0 0.0
2015-Jul-01 02:31N 37°48' W 122°17'0 0.0
2015-Jul-01 01:31N 37°48' W 122°17'0 0.0
2015-Jul-01 00:31N 37°48' W 122°17'0 0.0
2015-Jun-30 23:31N 37°48' W 122°17'0 0.0
2015-Jun-30 22:34N 37°48' W 122°17'0 0.0
2015-Jun-30 21:33N 37°48' W 122°17'0 0.0
2015-Jun-30 20:33N 37°48' W 122°17'0 0.0
2015-Jun-30 19:33N 37°48' W 122°17'3 2.9
2015-Jun-30 18:33N 37°47' W 122°21'5 4.7
2015-Jun-30 17:31N 37°42' W 122°20'0 0.0
2015-Jun-30 16:31N 37°42' W 122°20'0 0.0
2015-Jun-30 15:25N 37°42' W 122°20'0 0.0
2015-Jun-30 14:31N 37°42' W 122°20'0 0.1
2015-Jun-30 13:31N 37°42' W 122°20'4 4.0
2015-Jun-30 12:33N 37°46' W 122°21'0 0.0
2015-Jun-30 11:31N 37°46' W 122°21'0 0.0
2015-Jun-30 10:34N 37°46' W 122°21'1 1.0
2015-Jun-30 09:33N 37°45' W 122°21'2 2.4
2015-Jun-30 08:34N 37°43' W 122°19'1 0.8
2015-Jun-30 07:33N 37°42' W 122°19'0 0.2
2015-Jun-30 06:33N 37°42' W 122°19'0 0.1
2015-Jun-30 05:33N 37°42' W 122°19'0 0.3
2015-Jun-30 04:33N 37°42' W 122°19'8 8.3
2015-Jun-30 03:33N 37°50' W 122°23'5 4.6
2015-Jun-30 02:33N 37°54' W 122°23'1 1.0
2015-Jun-30 01:33N 37°55' W 122°22'0 0.0
2015-Jun-30 00:33N 37°55' W 122°22'0 0.0
2015-Jun-29 23:33N 37°55' W 122°22'0 0.0
2015-Jun-29 22:27N 37°55' W 122°22'0 0.0
2015-Jun-29 21:33N 37°55' W 122°22'0 0.0
2015-Jun-29 20:33N 37°55' W 122°22'0 0.0
2015-Jun-29 19:33N 37°55' W 122°22'0 0.0
2015-Jun-29 18:33N 37°55' W 122°22'3 2.6
2015-Jun-29 17:33N 37°54' W 122°25'6 6.2
2015-Jun-29 16:33N 37°49' W 122°20'1 1.1
2015-Jun-29 15:31N 37°49' W 122°19'0 0.0
2015-Jun-29 14:31N 37°49' W 122°19'0 0.0
2015-Jun-29 13:31N 37°49' W 122°19'1 1.6
2015-Jun-29 12:33N 37°48' W 122°20'3 2.6
2015-Jun-29 11:31N 37°48' W 122°17'0 0.0
2015-Jun-29 10:31N 37°48' W 122°17'0 0.0
2015-Jun-29 09:31N 37°48' W 122°17'0 0.0
2015-Jun-29 08:31N 37°48' W 122°17'0 0.0
2015-Jun-29 07:31N 37°48' W 122°17'0 0.0
2015-Jun-29 06:31N 37°48' W 122°17'0 0.0
2015-Jun-29 05:31N 37°48' W 122°17'0 0.0
2015-Jun-29 04:31N 37°48' W 122°17'0 0.0
2015-Jun-29 03:31N 37°48' W 122°17'0 0.0
2015-Jun-29 02:31N 37°48' W 122°17'0 0.0
2015-Jun-29 01:31N 37°48' W 122°17'0 0.0
2015-Jun-29 00:31N 37°48' W 122°17'0 0.0
2015-Jun-28 23:31N 37°48' W 122°17'0 0.0
2015-Jun-28 22:28N 37°48' W 122°17'0 0.0
2015-Jun-28 21:31N 37°48' W 122°17'0 0.0
2015-Jun-28 20:31N 37°48' W 122°17'0 0.0
2015-Jun-28 19:31N 37°48' W 122°17'0 0.0
2015-Jun-28 18:31N 37°48' W 122°17'0 0.0
2015-Jun-28 17:29N 37°48' W 122°17'3 3.3
2015-Jun-28 16:33N 37°47' W 122°21'2 1.7
2015-Jun-28 15:31N 37°45' W 122°21'0 0.0
2015-Jun-28 14:31N 37°45' W 122°21'0 0.1
2015-Jun-28 13:33N 37°45' W 122°21'1 0.7
2015-Jun-28 12:33N 37°44' W 122°20'0 0.2
2015-Jun-28 11:33N 37°44' W 122°20'0 0.0
2015-Jun-28 10:33N 37°44' W 122°20'0 0.0
2015-Jun-28 09:33N 37°44' W 122°20'1 1.3
2015-Jun-28 08:33N 37°46' W 122°20'0 0.0
2015-Jun-28 07:31N 37°46' W 122°20'0 0.0
2015-Jun-28 06:31N 37°46' W 122°20'0 0.1
2015-Jun-28 05:34N 37°46' W 122°20'0 0.1
2015-Jun-28 04:33N 37°46' W 122°20'4 3.8
2015-Jun-28 03:34N 37°49' W 122°23'6 5.9
2015-Jun-28 02:34N 37°54' W 122°24'2 1.9
2015-Jun-28 01:27N 37°55' W 122°22'0 0.0
2015-Jun-28 00:33N 37°55' W 122°22'0 0.0
2015-Jun-27 23:33N 37°55' W 122°22'0 0.0
2015-Jun-27 22:33N 37°55' W 122°22'4 3.8
2015-Jun-27 21:33N 37°52' W 122°24'8 7.9
2015-Jun-27 20:33N 37°44' W 122°21'1 1.4
2015-Jun-27 19:33N 37°43' W 122°20'0 0.1
2015-Jun-27 18:33N 37°43' W 122°20'0 0.2
2015-Jun-27 17:30N 37°43' W 122°20'0 0.0
2015-Jun-27 16:30N 37°43' W 122°20'3 2.9
2015-Jun-27 15:33N 37°45' W 122°21'7 7.3
2015-Jun-27 14:33N 37°52' W 122°24'3 3.3
2015-Jun-27 13:33N 37°55' W 122°22'0 0.0
2015-Jun-27 12:33N 37°55' W 122°22'0 0.0
2015-Jun-27 11:33N 37°55' W 122°22'0 0.0
2015-Jun-27 10:33N 37°55' W 122°22'0 0.0
2015-Jun-27 09:30N 37°55' W 122°22'0 0.0
2015-Jun-27 08:33N 37°55' W 122°22'0 0.0
2015-Jun-27 07:33N 37°55' W 122°22'0 0.0
2015-Jun-27 06:33N 37°55' W 122°22'0 0.0
2015-Jun-27 05:33N 37°55' W 122°22'0 0.0
2015-Jun-27 04:32N 37°55' W 122°22'0 0.0
2015-Jun-27 03:32N 37°55' W 122°22'0 0.0
2015-Jun-27 02:32N 37°55' W 122°22'0 0.0
2015-Jun-27 01:32N 37°55' W 122°22'0 0.0
2015-Jun-27 00:32N 37°55' W 122°22'0 0.0
2015-Jun-26 23:32N 37°55' W 122°22'0 0.0
2015-Jun-26 22:32N 37°55' W 122°22'0 0.0
2015-Jun-26 21:26N 37°55' W 122°22'0 0.0
2015-Jun-26 20:32N 37°55' W 122°22'0 0.0
2015-Jun-26 19:32N 37°55' W 122°22'0 0.0
2015-Jun-26 18:29N 37°55' W 122°22'0 0.0
2015-Jun-26 17:29N 37°55' W 122°22'0 0.0
2015-Jun-26 16:32N 37°55' W 122°22'3 2.7
2015-Jun-26 15:34N 37°54' W 122°25'8 8.4
2015-Jun-26 14:34N 37°46' W 122°21'0 0.2
2015-Jun-26 13:30N 37°45' W 122°21'0 0.0
2015-Jun-26 12:33N 37°45' W 122°21'0 0.0
2015-Jun-26 11:30N 37°45' W 122°21'1 0.9
2015-Jun-26 10:33N 37°46' W 122°21'0 0.0
2015-Jun-26 09:30N 37°46' W 122°21'0 0.0
2015-Jun-26 08:33N 37°46' W 122°21'0 0.0
2015-Jun-26 07:33N 37°46' W 122°21'1 0.7
2015-Jun-26 06:33N 37°46' W 122°21'0 0.0
2015-Jun-26 05:33N 37°46' W 122°21'0 0.0
2015-Jun-26 04:33N 37°46' W 122°21'0 0.2
2015-Jun-26 03:33N 37°45' W 122°21'0 0.0
2015-Jun-26 02:33N 37°45' W 122°21'0 0.1
2015-Jun-26 01:33N 37°45' W 122°21'0 0.0
2015-Jun-26 00:33N 37°45' W 122°21'0 0.0
2015-Jun-25 23:33N 37°45' W 122°21'0 0.1
2015-Jun-25 22:33N 37°45' W 122°21'0 0.1
2015-Jun-25 21:30N 37°45' W 122°21'0 0.2
2015-Jun-25 20:30N 37°46' W 122°21'0 0.0
2015-Jun-25 19:30N 37°46' W 122°21'0 0.0
2015-Jun-25 18:24N 37°46' W 122°21'0 0.0
2015-Jun-25 17:18N 37°46' W 122°21'0 0.0
2015-Jun-25 16:30N 37°46' W 122°21'0 0.2
2015-Jun-25 15:24N 37°45' W 122°21'0 0.3
2015-Jun-25 14:33N 37°45' W 122°21'4 3.6
2015-Jun-25 13:33N 37°48' W 122°17'0 0.0
2015-Jun-25 12:29N 37°48' W 122°17'0 0.0
2015-Jun-25 11:32N 37°48' W 122°17'0 0.0
2015-Jun-25 10:32N 37°48' W 122°17'0 0.0
2015-Jun-25 09:29N 37°48' W 122°17'0 0.0
2015-Jun-25 08:32N 37°48' W 122°17'0 0.0
2015-Jun-25 07:32N 37°48' W 122°17'0 0.0
2015-Jun-25 06:32N 37°48' W 122°17'0 0.0
2015-Jun-25 05:32N 37°48' W 122°17'0 0.0
2015-Jun-25 04:32N 37°48' W 122°17'0 0.0
2015-Jun-25 03:32N 37°48' W 122°17'0 0.0
2015-Jun-25 02:32N 37°48' W 122°17'0 0.0
2015-Jun-25 01:32N 37°48' W 122°17'0 0.0
2015-Jun-25 00:29N 37°48' W 122°17'0 0.0
2015-Jun-24 23:32N 37°48' W 122°17'0 0.0
2015-Jun-24 22:29N 37°48' W 122°17'0 0.0
2015-Jun-24 21:32N 37°48' W 122°17'0 0.0
2015-Jun-24 20:29N 37°48' W 122°17'0 0.0
2015-Jun-24 19:32N 37°48' W 122°17'0 0.0
2015-Jun-24 18:32N 37°48' W 122°17'0 0.0
2015-Jun-24 17:29N 37°48' W 122°17'0 0.0
2015-Jun-24 16:32N 37°48' W 122°17'0 0.0
2015-Jun-24 15:29N 37°48' W 122°17'0 0.0
2015-Jun-24 14:32N 37°48' W 122°17'0 0.0
2015-Jun-24 13:29N 37°48' W 122°17'0 0.0
2015-Jun-24 12:23N 37°48' W 122°17'0 0.0
2015-Jun-24 11:32N 37°48' W 122°17'0 0.0
2015-Jun-24 10:32N 37°48' W 122°17'0 0.0
2015-Jun-24 09:32N 37°48' W 122°17'0 0.0
2015-Jun-24 08:29N 37°48' W 122°17'0 0.0
2015-Jun-24 07:29N 37°48' W 122°17'0 0.0
2015-Jun-24 06:32N 37°48' W 122°17'0 0.0
2015-Jun-24 05:28N 37°48' W 122°17'0 0.0
2015-Jun-24 04:28N 37°48' W 122°17'0 0.1
2015-Jun-24 03:31N 37°48' W 122°17'0 0.0
2015-Jun-24 02:28N 37°48' W 122°17'0 0.0
2015-Jun-24 01:33N 37°48' W 122°17'3 3.2
2015-Jun-24 00:33N 37°46' W 122°21'1 0.9
2015-Jun-23 23:34N 37°45' W 122°21'0 0.0
2015-Jun-23 22:33N 37°45' W 122°21'0 0.0
2015-Jun-23 21:33N 37°46' W 122°21'0 0.0
2015-Jun-23 20:34N 37°46' W 122°21'3 2.7
2015-Jun-23 19:33N 37°48' W 122°18'1 2.5
2015-Jun-23 19:06N 37°48' W 122°17'0 0.0
2015-Jun-22 19:32N 37°48' W 122°17'0 0.0
2015-Jun-22 18:32N 37°48' W 122°17'0 0.0
2015-Jun-22 17:32N 37°48' W 122°17'0 0.0
2015-Jun-22 16:32N 37°48' W 122°17'0 0.0
2015-Jun-22 15:32N 37°48' W 122°17'0 0.0
2015-Jun-22 14:33N 37°48' W 122°17'4 4.0
2015-Jun-22 13:33N 37°49' W 122°22'6 5.7
2015-Jun-22 12:33N 37°54' W 122°25'2 1.9
2015-Jun-22 11:18N 37°55' W 122°22'0 0.0
2015-Jun-22 10:18N 37°55' W 122°22'0 0.0
2015-Jun-22 09:30N 37°55' W 122°22'0 0.0
2015-Jun-22 08:30N 37°55' W 122°22'0 0.0
2015-Jun-22 07:30N 37°55' W 122°22'0 0.0
2015-Jun-22 06:30N 37°55' W 122°22'0 0.0
2015-Jun-22 05:30N 37°55' W 122°22'0 0.0
2015-Jun-22 04:12N 37°55' W 122°22'0 0.0
2015-Jun-22 03:24N 37°55' W 122°22'0 0.0
2015-Jun-22 02:30N 37°55' W 122°22'0 0.0
2015-Jun-22 01:30N 37°55' W 122°22'  

Dump ship's entire track history